createdAt,value
2023-02-14T00:01:00.414Z,219.56
2023-02-14T00:06:07.024Z,219.96
2023-02-14T00:11:21.935Z,219.74
2023-02-14T00:16:29.200Z,219.42
2023-02-14T00:21:36.283Z,219.48
2023-02-14T00:26:43.537Z,219.62
2023-02-14T00:31:50.922Z,219.99
2023-02-14T00:36:57.931Z,220.09
2023-02-14T00:42:05.108Z,220.31
2023-02-14T00:47:12.368Z,219.88
2023-02-14T00:52:19.501Z,220.17
2023-02-14T00:57:26.987Z,220.56
2023-02-14T01:02:34.325Z,220.52
2023-02-14T01:07:41.395Z,220.41
2023-02-14T01:12:48.541Z,220.27
2023-02-14T01:17:55.760Z,220.41
2023-02-14T01:23:02.893Z,220.55
2023-02-14T01:28:10.126Z,220.53
2023-02-14T01:33:17.417Z,220.44
2023-02-14T01:38:24.622Z,220.27
2023-02-14T01:43:31.892Z,221.29
2023-02-14T01:48:39.220Z,221.85
2023-02-14T01:53:46.452Z,221.60
2023-02-14T01:58:53.669Z,221.58
2023-02-14T02:04:00.910Z,221.99
2023-02-14T02:09:08.148Z,222.17
2023-02-14T02:14:15.350Z,222.70
2023-02-14T02:19:22.564Z,223.37
2023-02-14T02:24:29.720Z,223.28
2023-02-14T02:29:36.894Z,223.56
2023-02-14T02:34:44.112Z,224.29
2023-02-14T02:39:51.272Z,224.44
2023-02-14T02:44:58.459Z,225.35
2023-02-14T02:50:05.673Z,225.30
2023-02-14T02:55:12.832Z,225.45
2023-02-14T03:00:20.015Z,225.98
2023-02-14T03:05:27.218Z,225.82
2023-02-14T03:10:34.491Z,225.43
2023-02-14T03:15:41.737Z,225.62
2023-02-14T03:20:48.844Z,225.44
2023-02-14T03:25:56.062Z,225.30
2023-02-14T03:31:03.681Z,224.91
2023-02-14T03:36:10.427Z,225.06
2023-02-14T03:41:17.583Z,224.73
2023-02-14T03:46:24.893Z,224.83
2023-02-14T03:51:32.090Z,224.76
2023-02-14T03:56:39.259Z,224.84
2023-02-14T04:01:46.566Z,224.24
2023-02-14T04:06:53.658Z,223.42
2023-02-14T04:12:00.798Z,223.03
2023-02-14T04:17:07.983Z,223.21
2023-02-14T04:22:15.181Z,223.20
2023-02-14T04:27:22.754Z,223.68
2023-02-14T04:32:30.007Z,223.68
2023-02-14T04:37:37.152Z,224.16
2023-02-14T04:42:44.298Z,224.86
2023-02-14T04:47:51.489Z,224.97
2023-02-14T04:52:58.685Z,224.41
2023-02-14T04:58:05.875Z,224.29
2023-02-14T05:03:13.136Z,224.41
2023-02-14T05:08:20.429Z,224.59
2023-02-14T05:13:27.604Z,224.91
2023-02-14T05:18:34.906Z,224.72
2023-02-14T05:23:42.108Z,225.13
2023-02-14T05:28:49.327Z,225.49
2023-02-14T05:33:56.534Z,226.03
2023-02-14T05:39:03.791Z,225.95
2023-02-14T05:44:10.920Z,225.35
2023-02-14T05:49:18.109Z,224.43
2023-02-14T05:54:25.333Z,224.59
2023-02-14T05:59:32.482Z,224.14
2023-02-14T06:04:39.729Z,222.98
2023-02-14T06:09:46.904Z,223.01
2023-02-14T06:14:54.173Z,223.22
2023-02-14T06:20:01.439Z,222.73
2023-02-14T06:25:08.704Z,222.09
2023-02-14T06:30:16.004Z,222.03
2023-02-14T06:35:23.182Z,221.57
2023-02-14T06:40:30.398Z,221.20
2023-02-14T06:45:37.545Z,220.83
2023-02-14T06:50:44.730Z,220.28
2023-02-14T06:55:51.976Z,220.22
2023-02-14T07:00:59.564Z,219.83
2023-02-14T07:06:06.395Z,219.27
2023-02-14T07:11:13.571Z,219.34
2023-02-14T07:16:20.749Z,219.13
2023-02-14T07:21:27.923Z,218.69
2023-02-14T07:26:35.131Z,219.23
2023-02-14T07:31:42.430Z,219.96
2023-02-14T07:36:49.528Z,219.84
2023-02-14T07:41:56.838Z,220.24
2023-02-14T07:47:04.019Z,220.25
2023-02-14T07:52:11.234Z,219.97
2023-02-14T07:57:18.509Z,220.08
2023-02-14T08:02:25.705Z,220.78
2023-02-14T08:07:32.892Z,220.76
2023-02-14T08:12:40.105Z,221.05
2023-02-14T08:17:47.269Z,221.27
2023-02-14T08:22:54.511Z,221.55
2023-02-14T08:28:01.762Z,221.60
2023-02-14T08:33:09.002Z,221.56
2023-02-14T08:38:16.307Z,222.06
2023-02-14T08:43:23.554Z,222.66
2023-02-14T08:48:30.767Z,223.05
2023-02-14T08:53:37.952Z,223.20
2023-02-14T08:58:45.170Z,223.57
2023-02-14T09:03:52.390Z,223.98
2023-02-14T09:09:01.584Z,223.98
2023-02-14T09:14:06.887Z,224.26
2023-02-14T09:19:14.948Z,224.41
2023-02-14T09:24:22.212Z,224.21
2023-02-14T09:29:29.494Z,224.49
2023-02-14T09:34:36.678Z,224.75
2023-02-14T09:39:43.903Z,225.30
2023-02-14T09:44:51.243Z,225.75
2023-02-14T09:49:58.408Z,226.42
2023-02-14T09:55:05.633Z,226.12
2023-02-14T10:00:12.827Z,226.60
2023-02-14T10:05:20.095Z,227.25
2023-02-14T10:10:27.464Z,227.32
2023-02-14T10:15:34.686Z,227.82
2023-02-14T10:20:41.856Z,228.21
2023-02-14T10:25:49.062Z,228.54
2023-02-14T10:30:56.430Z,229.07
2023-02-14T10:36:03.453Z,229.95
2023-02-14T10:41:10.665Z,230.35
2023-02-14T10:46:18.357Z,230.49
2023-02-14T10:51:25.002Z,231.11
2023-02-14T10:56:32.182Z,231.42
2023-02-14T11:01:39.596Z,231.73
2023-02-14T11:06:46.556Z,231.91
2023-02-14T11:11:53.764Z,232.55
2023-02-14T11:17:01.052Z,233.65
2023-02-14T11:22:08.208Z,234.16
2023-02-14T11:27:15.413Z,234.48
2023-02-14T11:32:22.630Z,235.03
2023-02-14T11:37:29.760Z,236.12
2023-02-14T11:42:36.996Z,236.60
2023-02-14T11:47:44.261Z,236.98
2023-02-14T11:52:51.438Z,237.76
2023-02-14T11:57:58.601Z,238.48
2023-02-14T12:03:05.823Z,238.80
2023-02-14T12:08:12.991Z,238.84
2023-02-14T12:13:20.160Z,239.56
2023-02-14T12:18:27.367Z,239.58
2023-02-14T12:23:34.533Z,240.38
2023-02-14T12:28:41.774Z,241.21
2023-02-14T12:33:50.615Z,241.39
2023-02-14T12:38:56.180Z,242.26
2023-02-14T12:44:03.366Z,242.97
2023-02-14T12:49:10.626Z,243.42
2023-02-14T12:54:17.837Z,243.64
2023-02-14T12:59:25.035Z,243.68
2023-02-14T13:04:32.233Z,244.77
2023-02-14T13:09:39.399Z,245.49
2023-02-14T13:14:46.567Z,245.88
2023-02-14T13:19:54.358Z,246.13
2023-02-14T13:25:00.957Z,245.93
2023-02-14T13:30:08.214Z,246.59
2023-02-14T13:35:15.354Z,246.58
2023-02-14T13:40:22.523Z,247.06
2023-02-14T13:45:29.760Z,247.22
2023-02-14T13:50:36.981Z,247.17
2023-02-14T13:55:44.276Z,247.86
2023-02-14T14:00:51.547Z,247.56
2023-02-14T14:05:59.215Z,247.40
2023-02-14T14:11:06.040Z,247.70
2023-02-14T14:16:13.345Z,247.93
2023-02-14T14:21:20.562Z,247.98
2023-02-14T14:26:27.669Z,247.59
2023-02-14T14:31:35.035Z,248.54
2023-02-14T14:36:42.033Z,248.45
2023-02-14T14:41:49.243Z,248.36
2023-02-14T14:46:56.412Z,248.29
2023-02-14T14:52:03.711Z,248.54
2023-02-14T14:57:10.890Z,248.14
2023-02-14T15:02:18.057Z,247.81
2023-02-14T15:07:25.278Z,248.07
2023-02-14T15:12:32.463Z,247.98
2023-02-14T15:17:39.632Z,248.49
2023-02-14T15:22:46.949Z,248.25
2023-02-14T15:27:54.102Z,248.29
2023-02-14T15:33:01.346Z,248.34
2023-02-14T15:38:08.597Z,248.26
2023-02-14T15:43:15.749Z,249.10
2023-02-14T15:48:23.261Z,248.89
2023-02-14T15:53:30.653Z,248.86
2023-02-14T15:58:37.981Z,249.02
2023-02-14T16:03:45.319Z,248.61
2023-02-14T16:08:52.587Z,248.72
2023-02-14T16:13:59.756Z,248.59
2023-02-14T16:19:07.106Z,248.54
2023-02-14T16:24:14.481Z,248.73
2023-02-14T16:29:21.740Z,248.48
2023-02-14T16:34:29.325Z,248.34
2023-02-14T16:39:36.725Z,248.09
2023-02-14T16:44:43.905Z,248.34
2023-02-14T16:49:51.447Z,247.63
2023-02-14T16:54:58.890Z,247.26
2023-02-14T17:00:06.080Z,247.16
2023-02-14T17:05:13.310Z,247.05
2023-02-14T17:10:20.534Z,247.02
2023-02-14T17:15:27.987Z,247.37
2023-02-14T17:20:35.601Z,247.01
2023-02-14T17:25:43.030Z,246.59
2023-02-14T17:30:50.334Z,246.56
2023-02-14T17:35:57.828Z,246.73
2023-02-14T17:41:05.474Z,246.95
2023-02-14T17:46:12.911Z,246.57
2023-02-14T17:51:20.172Z,246.85
2023-02-14T17:56:29.256Z,246.41
2023-02-14T18:01:36.875Z,246.73
2023-02-14T18:06:44.441Z,246.82
2023-02-14T18:11:52.078Z,247.21
2023-02-14T18:16:59.787Z,247.52
2023-02-14T18:22:07.391Z,247.58
2023-02-14T18:27:15.127Z,247.92
2023-02-14T18:32:22.534Z,248.76
2023-02-14T18:37:30.126Z,248.82
2023-02-14T18:42:37.758Z,249.50
2023-02-14T18:47:45.349Z,249.83
2023-02-14T18:52:53.016Z,250.04
2023-02-14T18:58:00.642Z,250.20
2023-02-14T19:03:08.200Z,249.96
2023-02-14T19:08:15.612Z,250.47
2023-02-14T19:13:23.082Z,250.79
2023-02-14T19:18:30.641Z,250.76
2023-02-14T19:23:38.364Z,251.17
2023-02-14T19:28:46.092Z,251.49
2023-02-14T19:33:54.707Z,251.41
2023-02-14T19:39:02.427Z,252.06
2023-02-14T19:44:10.163Z,252.20
2023-02-14T19:49:17.856Z,252.72
2023-02-14T19:54:25.484Z,253.12
2023-02-14T19:59:33.109Z,253.18
2023-02-14T20:04:41.615Z,253.31
2023-02-14T20:09:49.138Z,253.13
2023-02-14T20:14:56.782Z,253.72
2023-02-14T20:20:04.465Z,253.31
2023-02-14T20:25:12.177Z,253.86
2023-02-14T20:30:19.867Z,254.35
2023-02-14T20:35:27.511Z,255.03
2023-02-14T20:40:35.131Z,254.88
2023-02-14T20:45:42.871Z,254.69
2023-02-14T20:50:50.557Z,254.52
2023-02-14T20:55:58.235Z,255.00
2023-02-14T21:01:05.971Z,254.90
2023-02-14T21:06:16.368Z,255.61
2023-02-14T21:11:23.990Z,255.97
2023-02-14T21:16:31.735Z,256.36
2023-02-14T21:21:39.327Z,257.43
2023-02-14T21:26:46.955Z,257.08
2023-02-14T21:31:54.690Z,256.78
2023-02-14T21:37:02.173Z,257.45
2023-02-14T21:42:10.814Z,257.94
2023-02-14T21:47:18.447Z,258.38
2023-02-14T21:52:26.133Z,259.06
2023-02-14T21:57:33.751Z,259.40
2023-02-14T22:02:41.417Z,259.69
2023-02-14T22:07:49.184Z,260.19
2023-02-14T22:12:56.544Z,260.41
2023-02-14T22:18:03.715Z,260.44
2023-02-14T22:23:11.004Z,261.00
2023-02-14T22:28:18.176Z,260.85
2023-02-14T22:33:25.395Z,261.11
2023-02-14T22:38:32.530Z,261.59
2023-02-14T22:43:39.728Z,261.99
2023-02-14T22:48:46.918Z,262.44
2023-02-14T22:53:54.087Z,262.67
2023-02-14T22:59:01.274Z,263.26
2023-02-14T23:04:08.576Z,262.87
2023-02-14T23:09:15.750Z,263.23
2023-02-14T23:14:23.045Z,263.71
2023-02-14T23:19:30.282Z,264.03
2023-02-14T23:24:37.509Z,264.21
2023-02-14T23:29:44.653Z,264.17
2023-02-14T23:34:51.937Z,264.14
2023-02-14T23:39:59.173Z,264.43
2023-02-14T23:45:06.387Z,264.83
2023-02-14T23:50:13.664Z,264.98
2023-02-14T23:55:20.843Z,265.29
